createdAt,value
2023-02-05T00:01:31.618Z,7.85
2023-02-05T00:06:33.198Z,8.55
2023-02-05T00:11:34.642Z,9.27
2023-02-05T00:16:36.237Z,8.50
2023-02-05T00:21:37.820Z,7.93
2023-02-05T00:26:40.743Z,7.80
2023-02-05T00:31:42.410Z,7.70
2023-02-05T00:36:43.986Z,8.25
2023-02-05T00:41:45.482Z,8.77
2023-02-05T00:46:47.000Z,9.63
2023-02-05T00:51:48.531Z,7.45
2023-02-05T00:56:49.989Z,8.32
2023-02-05T01:01:51.450Z,7.88
2023-02-05T01:06:55.192Z,8.32
2023-02-05T01:11:56.729Z,7.55
2023-02-05T01:16:58.233Z,8.45
2023-02-05T01:21:59.734Z,7.22
2023-02-05T01:27:01.235Z,7.05
2023-02-05T01:32:02.771Z,7.43
2023-02-05T01:37:04.320Z,7.18
2023-02-05T01:42:17.254Z,7.43
2023-02-05T01:47:20.054Z,7.00
2023-02-05T01:52:21.631Z,7.85
2023-02-05T01:57:24.643Z,7.07
2023-02-05T02:02:26.235Z,6.90
2023-02-05T02:07:27.729Z,6.85
2023-02-05T02:12:33.597Z,7.07
2023-02-05T02:17:40.862Z,6.68
2023-02-05T02:22:54.499Z,7.32
2023-02-05T02:28:18.842Z,7.50
2023-02-05T02:33:39.065Z,6.25
2023-02-05T02:38:45.521Z,6.80
2023-02-05T02:43:54.355Z,7.00
2023-02-05T02:49:01.344Z,7.03
2023-02-05T02:54:09.440Z,6.82
2023-02-05T02:59:16.702Z,7.10
2023-02-05T03:04:25.584Z,6.78
2023-02-05T03:09:32.078Z,7.32
2023-02-05T03:14:33.878Z,6.95
2023-02-05T03:19:36.625Z,6.75
2023-02-05T03:24:38.798Z,7.40
2023-02-05T03:29:41.958Z,6.65
2023-02-05T03:34:56.772Z,6.15
2023-02-05T03:40:38.975Z,6.20
2023-02-05T03:45:48.240Z,5.88
2023-02-05T03:51:16.449Z,5.82
2023-02-05T03:56:32.221Z,6.72
2023-02-05T04:01:34.357Z,6.07
2023-02-05T04:06:36.034Z,5.60
2023-02-05T04:11:37.661Z,5.38
2023-02-05T04:16:40.153Z,7.32
2023-02-05T04:21:42.381Z,5.68
2023-02-05T04:26:44.166Z,6.82
2023-02-05T04:31:45.891Z,6.38
2023-02-05T04:36:48.016Z,7.32
2023-02-05T04:41:49.910Z,7.25
2023-02-05T04:46:51.437Z,5.82
2023-02-05T04:51:52.882Z,7.38
2023-02-05T04:56:54.460Z,7.65
2023-02-05T05:01:56.123Z,5.57
2023-02-05T05:06:57.647Z,6.43
2023-02-05T05:11:59.106Z,5.95
2023-02-05T05:17:00.614Z,5.90
2023-02-05T05:22:02.105Z,6.57
2023-02-05T05:27:03.632Z,7.05
2023-02-05T05:32:05.239Z,5.75
2023-02-05T05:37:06.702Z,6.22
2023-02-05T05:42:11.127Z,8.13
2023-02-05T05:47:12.637Z,6.50
2023-02-05T05:52:14.379Z,6.72
2023-02-05T05:57:15.835Z,6.35
2023-02-05T06:02:17.400Z,6.25
2023-02-05T06:07:18.835Z,6.18
2023-02-05T06:12:20.272Z,7.93
2023-02-05T06:17:21.699Z,5.72
2023-02-05T06:22:23.176Z,6.68
2023-02-05T06:27:24.764Z,6.90
2023-02-05T06:32:26.935Z,6.85
2023-02-05T06:37:45.437Z,10.95
2023-02-05T06:42:48.715Z,8.15
2023-02-05T06:47:50.346Z,6.78
2023-02-05T06:52:52.010Z,6.57
2023-02-05T06:57:53.455Z,6.95
2023-02-05T07:02:55.002Z,8.23
2023-02-05T07:07:56.628Z,17.58
2023-02-05T07:12:58.256Z,13.32
2023-02-05T07:17:59.700Z,17.02
2023-02-05T07:23:01.200Z,9.00
2023-02-05T07:28:06.910Z,8.10
2023-02-05T07:33:08.434Z,7.68
2023-02-05T07:38:09.885Z,8.45
2023-02-05T07:43:11.371Z,9.30
2023-02-05T07:48:12.840Z,7.70
2023-02-05T07:53:14.350Z,8.38
2023-02-05T07:58:15.954Z,7.00
2023-02-05T08:03:17.406Z,7.85
2023-02-05T08:08:18.976Z,5.78
2023-02-05T08:13:20.475Z,4.97
2023-02-05T08:18:22.298Z,5.53
2023-02-05T08:23:24.072Z,7.40
2023-02-05T08:28:27.284Z,5.95
2023-02-05T08:33:28.768Z,6.47
2023-02-05T08:38:30.274Z,5.65
2023-02-05T08:43:31.783Z,5.30
2023-02-05T08:48:33.426Z,5.90
2023-02-05T08:53:34.885Z,5.07
2023-02-05T08:58:37.429Z,5.85
2023-02-05T09:03:38.906Z,6.25
2023-02-05T09:08:40.523Z,5.30
2023-02-05T09:13:42.021Z,7.55
2023-02-05T09:18:43.452Z,5.57
2023-02-05T09:23:44.978Z,7.40
2023-02-05T09:28:46.472Z,5.22
2023-02-05T09:33:48.013Z,5.53
2023-02-05T09:38:49.888Z,5.00
2023-02-05T09:43:57.042Z,5.07
2023-02-05T09:49:07.694Z,4.05
2023-02-05T09:54:22.565Z,5.63
2023-02-05T09:59:26.223Z,4.03
2023-02-05T10:04:28.933Z,5.38
2023-02-05T10:09:51.972Z,5.15
2023-02-05T10:15:32.842Z,6.75
2023-02-05T10:21:04.545Z,4.03
2023-02-05T10:26:16.715Z,4.07
2023-02-05T10:31:37.188Z,4.13
2023-02-05T10:36:38.799Z,4.80
2023-02-05T10:41:47.145Z,4.80
2023-02-05T10:46:53.355Z,4.60
2023-02-05T10:51:54.800Z,4.60
2023-02-05T10:56:58.378Z,4.68
2023-02-05T11:02:06.029Z,4.60
2023-02-05T11:07:13.039Z,4.57
2023-02-05T11:12:22.731Z,5.32
2023-02-05T11:22:35.843Z,4.30
2023-02-05T11:27:37.694Z,3.72
2023-02-05T11:32:39.197Z,5.20
2023-02-05T11:37:40.782Z,6.03
2023-02-05T11:42:48.526Z,5.10
2023-02-05T11:47:50.119Z,6.15
2023-02-05T11:52:53.357Z,6.18
2023-02-05T11:58:01.373Z,7.25
2023-02-05T12:03:24.185Z,6.75
2023-02-05T12:08:45.112Z,8.20
2023-02-05T12:13:52.610Z,9.05
2023-02-05T12:19:11.602Z,9.77
2023-02-05T12:24:22.278Z,9.82
2023-02-05T12:29:42.994Z,8.38
2023-02-05T12:35:06.260Z,10.15
2023-02-05T12:40:26.376Z,9.63
2023-02-05T12:51:11.827Z,9.73
2023-02-05T12:56:41.836Z,9.95
2023-02-05T13:01:50.995Z,9.52
2023-02-05T13:06:57.802Z,9.50
2023-02-05T13:12:08.400Z,10.05
2023-02-05T13:17:27.233Z,9.45
2023-02-05T13:22:33.971Z,9.57
2023-02-05T13:27:45.235Z,9.50
2023-02-05T13:32:51.668Z,8.60
2023-02-05T13:38:10.085Z,8.98
2023-02-05T13:43:42.374Z,6.93
2023-02-05T13:49:09.747Z,6.70
2023-02-05T13:54:17.991Z,7.03
2023-02-05T13:59:19.466Z,7.20
2023-02-05T14:04:26.748Z,5.68
2023-02-05T14:09:40.896Z,7.03
2023-02-05T14:14:42.371Z,5.95
2023-02-05T14:19:46.807Z,6.55
2023-02-05T14:24:49.984Z,10.05
2023-02-05T14:29:52.518Z,7.28
2023-02-05T14:35:21.620Z,7.43
2023-02-05T14:40:30.838Z,7.20
2023-02-05T14:45:32.730Z,6.05
2023-02-05T14:50:34.382Z,6.50
2023-02-05T14:55:39.790Z,8.07
2023-02-05T15:00:41.968Z,6.80
2023-02-05T15:05:46.489Z,6.90
2023-02-05T15:11:09.065Z,6.85
2023-02-05T15:16:13.547Z,7.70
2023-02-05T15:21:26.548Z,6.32
2023-02-05T15:26:46.440Z,13.18
2023-02-05T15:37:16.449Z,5.82
2023-02-05T15:42:20.762Z,5.13
2023-02-05T15:47:24.914Z,6.90
2023-02-05T15:52:28.512Z,5.97
2023-02-05T15:57:31.673Z,5.55
2023-02-05T16:02:34.415Z,5.43
2023-02-05T16:07:41.017Z,6.43
2023-02-05T16:13:01.469Z,5.45
2023-02-05T16:18:06.522Z,5.13
2023-02-05T16:23:17.013Z,5.38
2023-02-05T16:28:37.841Z,4.90
2023-02-05T16:33:45.627Z,5.20
2023-02-05T16:38:52.246Z,5.13
2023-02-05T16:43:55.557Z,6.45
2023-02-05T16:49:23.928Z,6.47
2023-02-05T16:54:29.381Z,6.90
2023-02-05T16:59:45.058Z,7.45
2023-02-05T17:04:51.935Z,5.53
2023-02-05T17:10:05.642Z,8.75
2023-02-05T17:15:13.076Z,7.03
2023-02-05T17:20:19.971Z,7.25
2023-02-05T17:25:21.495Z,8.52
2023-02-05T17:30:23.091Z,6.97
2023-02-05T17:35:24.717Z,7.07
2023-02-05T17:40:26.290Z,5.85
2023-02-05T17:45:32.511Z,6.68
2023-02-05T17:50:34.995Z,7.30
2023-02-05T17:55:36.632Z,10.02
2023-02-05T18:00:38.111Z,6.68
2023-02-05T18:05:39.610Z,7.65
2023-02-05T18:10:41.080Z,6.25
2023-02-05T18:15:43.618Z,6.85
2023-02-05T18:20:45.125Z,6.25
2023-02-05T18:25:49.342Z,7.43
2023-02-05T18:31:02.773Z,6.38
2023-02-05T18:36:07.396Z,7.38
2023-02-05T18:41:14.864Z,6.15
2023-02-05T18:46:18.107Z,7.30
2023-02-05T18:51:21.716Z,8.48
2023-02-05T18:56:27.819Z,8.02
2023-02-05T19:01:30.853Z,9.65
2023-02-05T19:06:33.153Z,8.73
2023-02-05T19:11:34.733Z,9.45
2023-02-05T19:16:36.640Z,8.20
2023-02-05T19:21:38.122Z,8.57
2023-02-05T19:26:41.906Z,9.20
2023-02-05T19:31:43.924Z,8.82
2023-02-05T19:36:45.672Z,9.60
2023-02-05T19:41:47.330Z,9.75
2023-02-05T19:46:48.927Z,8.70
2023-02-05T19:51:53.562Z,9.43
2023-02-05T19:56:55.108Z,10.88
2023-02-05T20:01:56.601Z,9.05
2023-02-05T20:06:59.734Z,9.27
2023-02-05T20:12:01.576Z,9.85
2023-02-05T20:17:03.007Z,10.45
2023-02-05T20:22:04.443Z,9.48
2023-02-05T20:27:05.956Z,9.88
2023-02-05T20:32:07.399Z,11.60
2023-02-05T20:37:08.836Z,10.05
2023-02-05T20:42:11.128Z,9.57
2023-02-05T20:47:14.480Z,11.25
2023-02-05T20:52:15.937Z,11.00
2023-02-05T20:57:19.147Z,12.00
2023-02-05T21:02:21.807Z,8.95
2023-02-05T21:07:27.796Z,7.43
2023-02-05T21:12:29.426Z,8.93
2023-02-05T21:17:30.983Z,9.02
2023-02-05T21:22:32.485Z,9.88
2023-02-05T21:27:33.944Z,9.90
2023-02-05T21:32:35.351Z,8.48
2023-02-05T21:37:38.560Z,8.88
2023-02-05T21:42:39.999Z,8.73
2023-02-05T21:47:41.410Z,9.23
2023-02-05T21:52:42.868Z,9.63
2023-02-05T21:57:44.334Z,9.30
2023-02-05T22:02:45.754Z,10.38
2023-02-05T22:07:47.183Z,10.52
2023-02-05T22:12:48.641Z,9.63
2023-02-05T22:17:50.152Z,10.70
2023-02-05T22:22:51.638Z,10.38
2023-02-05T22:27:53.231Z,11.82
2023-02-05T22:32:54.795Z,10.40
2023-02-05T22:37:56.239Z,10.68
2023-02-05T22:42:57.660Z,11.93
2023-02-05T22:47:59.133Z,12.07
2023-02-05T22:53:00.571Z,10.43
2023-02-05T22:58:02.283Z,10.95
2023-02-05T23:03:04.237Z,10.57
2023-02-05T23:08:05.714Z,11.48
2023-02-05T23:13:07.265Z,10.25
2023-02-05T23:18:08.787Z,10.50
2023-02-05T23:23:10.276Z,9.30
2023-02-05T23:28:11.796Z,8.98
2023-02-05T23:33:13.265Z,8.65
2023-02-05T23:38:14.695Z,7.95
2023-02-05T23:43:16.184Z,9.20
2023-02-05T23:48:17.887Z,9.25
2023-02-05T23:53:20.208Z,8.00
2023-02-05T23:58:22.692Z,9.18
